Time;durP1;ratioP1;P1;durP2;ratioP2;P2;SDS_P1;SDS_P2;PMS_P1;PMS_P2;Temp;Humidity;BMP_temperature;BMP_pressure;BME280_temperature;BME280_humidity;BME280_pressure;Samples;Min_cycle;Max_cycle;Signal;HPM_P1;HPM_P2
2024/01/21 00:01:46;;;;;;;21.92;11.15;;;;;;;;;;5014947;28;20032;-57
2024/01/21 00:04:12;;;;;;;22.67;12.82;;;;;;;;;;4993230;28;20042;-57
2024/01/21 00:06:37;;;;;;;20.23;11.05;;;;;;;;;;4994749;28;20038;-57
2024/01/21 00:09:02;;;;;;;19.27;11.38;;;;;;;;;;4993444;28;20030;-57
2024/01/21 00:11:28;;;;;;;21.58;12.10;;;;;;;;;;4993797;28;20473;-57
2024/01/21 00:13:53;;;;;;;19.63;11.23;;;;;;;;;;4994573;28;20030;-57
2024/01/21 00:16:19;;;;;;;19.25;10.43;;;;;;;;;;4994933;28;20042;-57
2024/01/21 00:18:44;;;;;;;20.65;10.52;;;;;;;;;;5008861;28;20121;-57
2024/01/21 00:21:09;;;;;;;17.83;10.25;;;;;;;;;;4992580;28;20072;-58
2024/01/21 00:23:35;;;;;;;21.95;10.30;;;;;;;;;;4992938;28;20117;-58
2024/01/21 00:26:00;;;;;;;17.70;10.07;;;;;;;;;;4992925;28;20110;-59
2024/01/21 00:28:26;;;;;;;19.95;10.85;;;;;;;;;;4993467;28;20031;-58
2024/01/21 00:30:51;;;;;;;18.10;10.25;;;;;;;;;;4993109;28;20026;-58
2024/01/21 00:33:16;;;;;;;18.80;11.02;;;;;;;;;;4993134;28;20042;-57
2024/01/21 00:35:42;;;;;;;19.60;11.32;;;;;;;;;;4994186;28;20080;-57
2024/01/21 00:38:07;;;;;;;17.60;10.38;;;;;;;;;;4994337;28;20061;-57
2024/01/21 00:40:33;;;;;;;20.75;10.25;;;;;;;;;;4992509;28;20505;-57
2024/01/21 00:42:59;;;;;;;19.95;11.18;;;;;;;;;;4992282;28;20125;-57
2024/01/21 00:45:27;;;;;;;23.05;12.57;;;;;;;;;;4992267;28;20101;-57
2024/01/21 00:47:53;;;;;;;20.23;10.20;;;;;;;;;;4992321;28;20393;-57
2024/01/21 00:50:18;;;;;;;25.48;13.48;;;;;;;;;;5007434;28;20034;-57
2024/01/21 00:52:43;;;;;;;23.00;12.82;;;;;;;;;;4991009;28;20034;-57
2024/01/21 00:55:09;;;;;;;19.77;12.65;;;;;;;;;;4993619;28;20026;-57
2024/01/21 00:57:34;;;;;;;21.38;12.55;;;;;;;;;;4994095;28;20484;-57
2024/01/21 01:00:00;;;;;;;20.45;12.25;;;;;;;;;;4994629;28;20112;-57
2024/01/21 01:02:25;;;;;;;21.13;11.77;;;;;;;;;;4994646;28;20022;-57
2024/01/21 01:04:51;;;;;;;20.83;12.65;;;;;;;;;;5012321;28;20050;-57
2024/01/21 01:07:19;;;;;;;18.63;11.02;;;;;;;;;;5013629;28;20026;-56
2024/01/21 01:09:46;;;;;;;17.60;11.32;;;;;;;;;;4996626;28;20363;-56
2024/01/21 01:12:12;;;;;;;16.80;10.10;;;;;;;;;;5013508;28;20097;-56
2024/01/21 01:14:40;;;;;;;19.08;10.73;;;;;;;;;;5014096;28;20041;-56
2024/01/21 01:17:09;;;;;;;17.80;9.90;;;;;;;;;;5013807;28;20038;-57
2024/01/21 01:19:34;;;;;;;20.67;10.75;;;;;;;;;;5013770;28;20053;-57
2024/01/21 01:21:59;;;;;;;19.38;12.20;;;;;;;;;;4996359;28;20041;-62
2024/01/21 01:24:43;;;;;;;17.67;10.35;;;;;;;;;;5031431;23;20061;-57
2024/01/21 01:27:09;;;;;;;16.38;9.48;;;;;;;;;;5015585;23;20111;-92
2024/01/21 01:29:35;;;;;;;17.55;9.88;;;;;;;;;;5000148;28;20480;-93
2024/01/21 01:32:05;;;;;;;18.15;10.85;;;;;;;;;;5021468;28;20037;-93
2024/01/21 01:34:33;;;;;;;22.50;13.00;;;;;;;;;;5000301;28;20033;-91
2024/01/21 01:37:01;;;;;;;19.15;11.20;;;;;;;;;;4984367;28;20025;-92
2024/01/21 01:39:32;;;;;;;22.40;12.90;;;;;;;;;;4984473;28;20021;-93
2024/01/21 01:42:05;;;;;;;23.52;13.13;;;;;;;;;;5018241;28;20030;-94
2024/01/21 01:44:30;;;;;;;20.48;12.57;;;;;;;;;;5000288;28;20381;-92
2024/01/21 01:46:56;;;;;;;25.15;13.32;;;;;;;;;;5016613;28;20038;-93
2024/01/21 01:49:21;;;;;;;22.88;13.00;;;;;;;;;;5000344;28;20038;-92
2024/01/21 01:51:47;;;;;;;21.45;11.68;;;;;;;;;;5000523;28;20088;-93
2024/01/21 01:54:15;;;;;;;19.77;11.85;;;;;;;;;;5016623;28;20033;-93
2024/01/21 01:56:40;;;;;;;23.77;12.45;;;;;;;;;;4983702;28;20052;-93
2024/01/21 01:59:09;;;;;;;21.77;13.00;;;;;;;;;;4984070;28;20025;-92
2024/01/21 02:01:37;;;;;;;21.52;12.10;;;;;;;;;;5000498;28;20030;-92
2024/01/21 02:04:05;;;;;;;24.02;13.45;;;;;;;;;;4983468;28;20045;-91
2024/01/21 02:06:31;;;;;;;23.02;13.55;;;;;;;;;;5016381;28;20026;-92
2024/01/21 02:08:59;;;;;;;24.27;13.23;;;;;;;;;;4999963;28;20033;-93
2024/01/21 02:11:25;;;;;;;25.80;14.30;;;;;;;;;;5000079;28;20029;-93
2024/01/21 02:17:25;;;;;;;;;;;;;;;;;;;;;
2024/01/21 02:20:52;;;;;;;25.67;14.13;;;;;;;;;;5017330;28;20037;-93
2024/01/21 02:23:33;;;;;;;21.80;12.48;;;;;;;;;;4993417;28;20440;-93
2024/01/21 02:26:24;;;;;;;25.00;14.02;;;;;;;;;;5002444;28;20026;-92
2024/01/21 02:32:07;;;;;;;27.85;14.98;;;;;;;;;;4973968;28;20486;-90
2024/01/21 02:34:33;;;;;;;24.90;14.52;;;;;;;;;;4982506;28;20042;-93
2024/01/21 02:36:58;;;;;;;26.50;15.02;;;;;;;;;;5015306;28;20049;-92
2024/01/21 02:39:26;;;;;;;26.45;13.93;;;;;;;;;;4983138;28;20013;-93
2024/01/21 02:41:52;;;;;;;25.55;14.70;;;;;;;;;;5015801;28;20535;-92
2024/01/21 02:44:19;;;;;;;26.92;15.40;;;;;;;;;;4999086;28;20030;-91
2024/01/21 02:46:45;;;;;;;24.60;14.77;;;;;;;;;;4983133;28;20029;-94
2024/01/21 02:49:13;;;;;;;27.25;14.38;;;;;;;;;;4982839;28;20427;-90
2024/01/21 02:51:39;;;;;;;22.00;13.40;;;;;;;;;;4999321;28;20030;-90
2024/01/21 02:54:04;;;;;;;23.17;13.48;;;;;;;;;;4982525;28;20053;-93
2024/01/21 02:56:30;;;;;;;24.75;14.60;;;;;;;;;;4999538;28;20029;-91
2024/01/21 02:58:55;;;;;;;23.02;14.23;;;;;;;;;;4983059;28;20026;-91
2024/01/21 03:01:21;;;;;;;23.83;13.98;;;;;;;;;;4998945;28;20057;-92
2024/01/21 03:03:46;;;;;;;24.40;13.68;;;;;;;;;;4999108;28;20083;-92
2024/01/21 03:06:12;;;;;;;23.00;13.30;;;;;;;;;;4999037;28;20080;-92
2024/01/21 03:08:37;;;;;;;23.67;13.70;;;;;;;;;;4998852;28;20026;-92
2024/01/21 03:11:03;;;;;;;22.20;13.70;;;;;;;;;;4998935;28;20117;-92
2024/01/21 03:13:28;;;;;;;23.05;13.05;;;;;;;;;;4998746;28;20029;-92
2024/01/21 03:15:54;;;;;;;22.40;12.65;;;;;;;;;;4998655;28;20113;-91
2024/01/21 03:18:20;;;;;;;24.50;13.32;;;;;;;;;;4982141;28;20026;-93
2024/01/21 03:20:46;;;;;;;27.33;13.85;;;;;;;;;;4982363;28;20033;-92
2024/01/21 03:23:11;;;;;;;23.88;13.40;;;;;;;;;;4982096;28;20492;-91
2024/01/21 03:25:37;;;;;;;22.33;14.23;;;;;;;;;;4982397;28;20030;-92
2024/01/21 03:28:03;;;;;;;26.88;13.77;;;;;;;;;;4982149;28;20096;-90
2024/01/21 03:30:28;;;;;;;25.25;13.43;;;;;;;;;;4982078;28;20453;-92
2024/01/21 03:32:54;;;;;;;22.55;13.35;;;;;;;;;;4998487;28;20542;-92
2024/01/21 03:35:19;;;;;;;24.92;14.07;;;;;;;;;;4982342;28;20034;-91
2024/01/21 03:37:45;;;;;;;26.70;13.38;;;;;;;;;;5030976;28;20117;-92
2024/01/21 03:40:13;;;;;;;23.98;13.23;;;;;;;;;;4982771;28;20539;-92
2024/01/21 03:42:39;;;;;;;23.15;14.13;;;;;;;;;;4998324;28;20117;-92
2024/01/21 03:45:04;;;;;;;24.38;14.13;;;;;;;;;;4998196;28;20066;-91
2024/01/21 03:47:30;;;;;;;24.52;13.15;;;;;;;;;;5014277;28;20030;-92
2024/01/21 03:49:55;;;;;;;24.73;14.10;;;;;;;;;;4981219;28;20026;-91
2024/01/21 03:52:21;;;;;;;25.60;14.05;;;;;;;;;;4982090;28;20034;-92
2024/01/21 03:54:47;;;;;;;23.00;13.27;;;;;;;;;;4981803;28;20017;-92
2024/01/21 03:57:12;;;;;;;25.65;13.85;;;;;;;;;;4981997;28;20476;-91
2024/01/21 03:59:39;;;;;;;22.05;14.07;;;;;;;;;;4981556;28;20116;-91
2024/01/21 04:02:04;;;;;;;22.83;14.20;;;;;;;;;;4981734;28;20030;-92
2024/01/21 04:04:30;;;;;;;27.20;14.75;;;;;;;;;;5013918;28;20038;-91
2024/01/21 04:06:55;;;;;;;27.77;15.10;;;;;;;;;;4981571;28;20029;-92
2024/01/21 04:09:23;;;;;;;24.95;14.27;;;;;;;;;;4997969;28;20115;-92
2024/01/21 04:11:54;;;;;;;26.20;15.27;;;;;;;;;;4998348;28;20093;-92
2024/01/21 04:14:21;;;;;;;24.15;14.20;;;;;;;;;;4997699;28;20030;-91
2024/01/21 04:16:47;;;;;;;23.45;14.77;;;;;;;;;;4981745;28;20030;-91
2024/01/21 04:19:43;;;;;;;;;;;;;;;;;;;;;
2024/01/21 04:22:21;;;;;;;26.60;14.60;;;;;;;;;;4996988;28;20032;-92
2024/01/21 04:25:10;;;;;;;26.13;14.93;;;;;;;;;;4996926;28;20121;-92
2024/01/21 04:27:37;;;;;;;23.95;14.35;;;;;;;;;;4997158;28;20049;-90
2024/01/21 04:30:05;;;;;;;26.52;15.68;;;;;;;;;;4997116;28;20092;-91
2024/01/21 04:32:31;;;;;;;25.65;14.40;;;;;;;;;;4979469;28;20038;-93
2024/01/21 04:35:12;;;;;;;26.00;14.98;;;;;;;;;;4982132;28;20053;-93
2024/01/21 04:37:42;;;;;;;26.70;15.65;;;;;;;;;;4981374;28;20033;-94
2024/01/21 04:40:16;;;;;;;23.38;15.02;;;;;;;;;;4997680;28;20460;-93
2024/01/21 04:42:42;;;;;;;25.90;14.98;;;;;;;;;;4997323;28;20026;-94
2024/01/21 04:45:19;;;;;;;25.52;14.88;;;;;;;;;;4980794;28;20033;-92
2024/01/21 04:47:51;;;;;;;23.65;13.93;;;;;;;;;;4981206;28;20120;-92
2024/01/21 04:50:19;;;;;;;25.17;14.48;;;;;;;;;;4981057;28;20046;-93
2024/01/21 04:52:52;;;;;;;25.23;14.80;;;;;;;;;;4982016;28;20022;-94
2024/01/21 04:55:20;;;;;;;22.83;14.40;;;;;;;;;;4981631;28;20038;-93
2024/01/21 04:57:51;;;;;;;25.70;15.07;;;;;;;;;;4997199;28;20052;-93
2024/01/21 05:00:16;;;;;;;23.02;14.27;;;;;;;;;;4997577;28;20022;-93
2024/01/21 05:02:52;;;;;;;27.45;15.27;;;;;;;;;;5001902;28;20034;-92
2024/01/21 05:05:47;;;;;;;34.83;19.20;;;;;;;;;;5001171;28;20461;-93
2024/01/21 05:08:43;;;;;;;29.45;15.43;;;;;;;;;;5002979;28;20044;-93
2024/01/21 05:11:13;;;;;;;27.58;14.90;;;;;;;;;;4985252;28;20048;-92
2024/01/21 05:13:41;;;;;;;24.65;14.63;;;;;;;;;;4984996;28;20026;-95
2024/01/21 05:16:06;;;;;;;22.05;13.43;;;;;;;;;;4984835;28;20116;-92
2024/01/21 05:18:49;;;;;;;;;;;;;;;;;;;;;
2024/01/21 05:21:21;;;;;;;23.75;14.07;;;;;;;;;;5000737;28;20451;-92
2024/01/21 05:23:50;;;;;;;25.23;14.93;;;;;;;;;;4984231;28;20042;-91
2024/01/21 05:26:19;;;;;;;23.73;13.32;;;;;;;;;;5001258;28;20040;-91
2024/01/21 05:29:00;;;;;;;;;;;;;;;;;;;;;
2024/01/21 05:34:23;;;;;;;22.55;13.05;;;;;;;;;;5000351;28;20042;-91
2024/01/21 05:36:59;;;;;;;23.83;13.25;;;;;;;;;;5000538;28;20538;-92
2024/01/21 05:39:27;;;;;;;22.77;13.70;;;;;;;;;;5000818;28;20022;-91
2024/01/21 05:42:06;;;;;;;24.35;13.68;;;;;;;;;;5033138;28;20066;-92
2024/01/21 05:44:39;;;;;;;25.25;13.75;;;;;;;;;;4985097;28;20030;-92
2024/01/21 05:47:10;;;;;;;24.63;13.95;;;;;;;;;;4984417;28;20112;-92
2024/01/21 05:49:39;;;;;;;24.75;14.23;;;;;;;;;;4984561;28;20022;-90
2024/01/21 05:52:06;;;;;;;27.52;14.00;;;;;;;;;;5033374;28;20116;-90
2024/01/21 05:54:32;;;;;;;28.63;15.75;;;;;;;;;;4984353;28;20080;-91
2024/01/21 05:56:57;;;;;;;25.15;14.88;;;;;;;;;;4984217;28;20034;-92
2024/01/21 06:27:45;;;;;;;23.73;14.60;;;;;;;;;;5016081;23;20132;-63
2024/01/21 06:30:12;;;;;;;29.95;16.17;;;;;;;;;;5016426;28;20062;-62
2024/01/21 06:32:37;;;;;;;24.00;14.73;;;;;;;;;;5016673;28;20033;-63
2024/01/21 06:35:02;;;;;;;22.13;14.02;;;;;;;;;;5016289;28;20033;-63
2024/01/21 06:37:28;;;;;;;25.73;14.07;;;;;;;;;;4998429;28;20026;-63
2024/01/21 06:39:53;;;;;;;25.58;14.65;;;;;;;;;;5015911;28;20060;-63
2024/01/21 06:42:18;;;;;;;21.80;13.93;;;;;;;;;;5015929;28;20030;-63
2024/01/21 06:44:44;;;;;;;20.30;13.02;;;;;;;;;;5016310;28;20030;-63
2024/01/21 06:47:10;;;;;;;24.50;14.10;;;;;;;;;;5015925;28;20041;-61
2024/01/21 06:49:35;;;;;;;23.05;13.45;;;;;;;;;;5015711;28;20037;-61
2024/01/21 06:52:01;;;;;;;22.23;13.63;;;;;;;;;;4998431;28;20107;-61
2024/01/21 06:54:27;;;;;;;24.20;14.15;;;;;;;;;;5015593;28;20033;-63
2024/01/21 06:56:53;;;;;;;25.23;16.02;;;;;;;;;;5015649;28;20034;-63
2024/01/21 06:59:18;;;;;;;27.65;16.75;;;;;;;;;;4997995;28;20080;-63
2024/01/21 07:01:44;;;;;;;25.02;16.55;;;;;;;;;;4998324;28;20037;-63
2024/01/21 07:04:09;;;;;;;25.08;15.60;;;;;;;;;;5015430;28;20041;-63
2024/01/21 07:06:34;;;;;;;25.75;14.73;;;;;;;;;;4998674;28;20029;-63
2024/01/21 07:09:00;;;;;;;25.33;15.50;;;;;;;;;;5015375;28;20444;-63
2024/01/21 07:11:25;;;;;;;32.05;17.63;;;;;;;;;;5015298;28;20037;-63
2024/01/21 07:13:51;;;;;;;37.97;25.33;;;;;;;;;;5015794;28;20041;-63
2024/01/21 07:16:16;;;;;;;42.00;25.63;;;;;;;;;;5015528;28;20037;-63
2024/01/21 07:18:41;;;;;;;40.70;21.60;;;;;;;;;;5015366;28;20036;-63
2024/01/21 07:21:07;;;;;;;37.25;19.95;;;;;;;;;;4997489;28;20378;-63
2024/01/21 07:23:32;;;;;;;57.60;25.98;;;;;;;;;;5014735;28;20400;-63
2024/01/21 07:25:58;;;;;;;55.80;25.63;;;;;;;;;;5014527;28;20069;-62
2024/01/21 07:28:23;;;;;;;41.03;20.65;;;;;;;;;;5015269;28;20112;-62
2024/01/21 07:30:48;;;;;;;23.95;14.07;;;;;;;;;;5014955;28;20030;-62
2024/01/21 07:33:14;;;;;;;22.00;12.38;;;;;;;;;;5015167;28;20354;-62
2024/01/21 07:35:39;;;;;;;22.00;13.18;;;;;;;;;;5015465;28;20537;-62
2024/01/21 07:38:04;;;;;;;17.48;12.65;;;;;;;;;;5015392;28;20084;-62
2024/01/21 07:40:31;;;;;;;20.58;12.48;;;;;;;;;;5015082;28;20029;-62
2024/01/21 07:42:57;;;;;;;22.30;13.55;;;;;;;;;;5015065;28;20030;-62
2024/01/21 07:45:22;;;;;;;29.48;15.23;;;;;;;;;;5014905;28;20034;-62
2024/01/21 07:47:48;;;;;;;25.45;14.95;;;;;;;;;;5014975;28;20386;-62
2024/01/21 07:50:13;;;;;;;22.48;13.18;;;;;;;;;;5014857;28;20087;-62
2024/01/21 07:52:38;;;;;;;23.67;13.35;;;;;;;;;;4997636;28;20083;-62
2024/01/21 07:55:04;;;;;;;20.98;13.30;;;;;;;;;;5014827;28;20025;-61
2024/01/21 07:57:29;;;;;;;23.30;14.20;;;;;;;;;;5015087;28;20038;-62
2024/01/21 07:59:54;;;;;;;33.67;18.40;;;;;;;;;;5014482;28;20026;-62
2024/01/21 08:02:20;;;;;;;45.33;28.67;;;;;;;;;;5014422;28;20025;-62
2024/01/21 08:04:46;;;;;;;35.67;22.13;;;;;;;;;;5014880;28;20588;-62
2024/01/21 08:07:12;;;;;;;27.30;17.50;;;;;;;;;;5014367;28;20026;-62
2024/01/21 08:09:37;;;;;;;28.25;16.63;;;;;;;;;;4996875;28;20377;-62
2024/01/21 08:12:03;;;;;;;30.52;16.25;;;;;;;;;;5014550;28;20471;-62
2024/01/21 08:14:30;;;;;;;29.05;15.55;;;;;;;;;;5014552;28;20088;-62
2024/01/21 08:16:55;;;;;;;28.45;14.38;;;;;;;;;;5014249;28;20101;-62
2024/01/21 08:19:21;;;;;;;24.33;13.73;;;;;;;;;;5014447;28;20121;-62
2024/01/21 08:21:46;;;;;;;26.17;14.45;;;;;;;;;;4996704;28;20057;-67
2024/01/21 08:24:12;;;;;;;22.80;13.73;;;;;;;;;;5014072;28;20068;-64
2024/01/21 08:26:37;;;;;;;26.55;16.45;;;;;;;;;;5013996;28;20069;-64
2024/01/21 08:29:03;;;;;;;34.13;19.27;;;;;;;;;;5013987;28;20496;-63
2024/01/21 08:31:28;;;;;;;32.42;19.58;;;;;;;;;;5013990;28;20030;-63
2024/01/21 08:33:54;;;;;;;22.20;14.77;;;;;;;;;;4996458;28;20034;-65
2024/01/21 08:36:19;;;;;;;20.10;13.07;;;;;;;;;;5013800;28;20541;-65
2024/01/21 08:38:44;;;;;;;18.75;12.15;;;;;;;;;;4996366;28;20029;-66
2024/01/21 08:41:10;;;;;;;20.02;12.60;;;;;;;;;;5013890;28;20401;-65
2024/01/21 08:43:35;;;;;;;17.13;11.82;;;;;;;;;;5013763;28;20366;-65
2024/01/21 08:46:01;;;;;;;21.67;13.32;;;;;;;;;;5013849;28;20018;-65
2024/01/21 08:48:26;;;;;;;24.60;13.45;;;;;;;;;;4995007;28;20037;-65
2024/01/21 08:50:52;;;;;;;21.70;13.65;;;;;;;;;;4996479;28;20022;-65
2024/01/21 08:53:17;;;;;;;18.15;11.38;;;;;;;;;;5013810;28;20457;-64
2024/01/21 08:55:43;;;;;;;21.17;13.15;;;;;;;;;;4996092;28;20034;-64
2024/01/21 08:58:08;;;;;;;17.70;11.02;;;;;;;;;;5013870;28;20033;-64
2024/01/21 09:00:33;;;;;;;30.00;15.88;;;;;;;;;;5012952;28;20113;-65
2024/01/21 09:02:59;;;;;;;27.75;15.02;;;;;;;;;;5011649;28;20032;-65
2024/01/21 09:05:24;;;;;;;25.80;16.13;;;;;;;;;;5011584;28;20559;-65
2024/01/21 09:07:49;;;;;;;21.77;12.90;;;;;;;;;;5011654;28;20210;-65
2024/01/21 09:10:15;;;;;;;19.63;12.40;;;;;;;;;;5011621;28;20033;-65
2024/01/21 09:12:40;;;;;;;23.55;14.40;;;;;;;;;;5012013;28;20524;-65
2024/01/21 09:15:06;;;;;;;23.42;14.25;;;;;;;;;;4994500;28;20029;-64
2024/01/21 09:17:32;;;;;;;24.67;15.75;;;;;;;;;;4996000;28;20358;-65
2024/01/21 09:19:57;;;;;;;24.60;15.23;;;;;;;;;;5013823;28;20164;-65
2024/01/21 09:22:23;;;;;;;26.15;16.90;;;;;;;;;;5013772;28;20057;-65
2024/01/21 09:24:48;;;;;;;27.83;16.20;;;;;;;;;;5013700;28;20030;-65
2024/01/21 09:27:14;;;;;;;31.17;19.15;;;;;;;;;;5013270;28;20420;-65
2024/01/21 09:29:39;;;;;;;40.72;22.20;;;;;;;;;;4995851;28;20528;-66
2024/01/21 09:32:05;;;;;;;27.60;14.82;;;;;;;;;;4995791;28;20010;-65
2024/01/21 09:34:30;;;;;;;28.42;17.10;;;;;;;;;;5013369;28;20042;-65
2024/01/21 09:36:57;;;;;;;27.80;17.70;;;;;;;;;;5013406;28;20065;-65
2024/01/21 09:39:23;;;;;;;24.33;13.25;;;;;;;;;;5013366;28;20041;-65
2024/01/21 09:41:49;;;;;;;29.50;16.33;;;;;;;;;;5013937;28;20038;-65
2024/01/21 09:44:21;;;;;;;44.00;23.90;;;;;;;;;;5013231;28;20107;-65
2024/01/21 09:46:53;;;;;;;41.55;22.95;;;;;;;;;;5013899;28;20022;-65
2024/01/21 09:49:19;;;;;;;20.35;10.15;;;;;;;;;;5017028;28;20061;-65
2024/01/21 09:51:49;;;;;;;17.88;9.88;;;;;;;;;;4999604;28;20030;-65
2024/01/21 09:54:14;;;;;;;19.10;11.65;;;;;;;;;;4999211;28;20121;-60
2024/01/21 09:56:41;;;;;;;16.40;9.95;;;;;;;;;;5026857;23;20081;-60
2024/01/21 10:02:10;;;;;;;13.82;8.75;;;;;;;;;;5015307;23;20061;-64
2024/01/21 10:04:45;;;;;;;15.23;8.40;;;;;;;;;;5003197;23;20081;-61
2024/01/21 10:07:11;;;;;;;17.65;9.38;;;;;;;;;;5047286;23;20145;-64
2024/01/21 10:09:36;;;;;;;17.88;9.27;;;;;;;;;;5031719;28;20393;-65
2024/01/21 10:12:02;;;;;;;13.95;9.32;;;;;;;;;;5016512;28;20022;-64
2024/01/21 10:14:28;;;;;;;13.38;8.25;;;;;;;;;;5016701;28;20034;-63
2024/01/21 10:16:53;;;;;;;12.90;7.38;;;;;;;;;;5016979;28;20515;-63
2024/01/21 10:19:30;;;;;;;17.45;9.65;;;;;;;;;;5016620;28;20026;-64
2024/01/21 10:22:13;;;;;;;13.95;8.27;;;;;;;;;;4998833;28;20428;-64
2024/01/21 10:24:42;;;;;;;13.55;8.10;;;;;;;;;;5016426;28;20358;-64
2024/01/21 10:27:08;;;;;;;13.57;7.95;;;;;;;;;;5016478;28;20046;-64
2024/01/21 10:29:38;;;;;;;12.32;7.03;;;;;;;;;;4998931;28;20058;-64
2024/01/21 10:32:03;;;;;;;11.98;7.43;;;;;;;;;;5016461;28;20026;-64
2024/01/21 10:34:28;;;;;;;21.05;11.65;;;;;;;;;;5031676;28;20408;-64
2024/01/21 10:36:56;;;;;;;26.20;14.07;;;;;;;;;;5016050;28;20029;-64
2024/01/21 10:39:23;;;;;;;19.65;11.40;;;;;;;;;;5016543;28;20018;-64
2024/01/21 10:41:49;;;;;;;21.15;11.20;;;;;;;;;;5016207;28;20037;-64
2024/01/21 10:44:15;;;;;;;16.75;9.50;;;;;;;;;;5015827;28;20458;-64
2024/01/21 10:46:42;;;;;;;36.50;19.90;;;;;;;;;;5016095;28;20129;-64
2024/01/21 10:49:08;;;;;;;73.45;34.63;;;;;;;;;;5015796;28;20404;-65
2024/01/21 10:51:36;;;;;;;96.70;46.88;;;;;;;;;;5015760;28;20088;-69
2024/01/21 10:54:03;;;;;;;36.05;17.98;;;;;;;;;;5015911;28;20034;-63
2024/01/21 10:56:28;;;;;;;22.88;14.52;;;;;;;;;;4998446;28;20018;-63
2024/01/21 10:58:54;;;;;;;33.17;18.55;;;;;;;;;;4997383;28;20040;-63
2024/01/21 11:01:20;;;;;;;13.25;8.60;;;;;;;;;;5015371;28;20026;-64
2024/01/21 11:03:48;;;;;;;15.18;10.00;;;;;;;;;;5015801;28;20041;-64
2024/01/21 11:06:21;;;;;;;17.63;11.25;;;;;;;;;;4997822;28;20022;-64
2024/01/21 11:08:49;;;;;;;17.52;11.23;;;;;;;;;;5014299;28;20456;-63
2024/01/21 11:11:22;;;;;;;14.40;9.32;;;;;;;;;;5015665;28;20061;-63
2024/01/21 11:13:48;;;;;;;16.80;9.80;;;;;;;;;;5015277;28;20504;-63
2024/01/21 11:16:26;;;;;;;19.17;11.27;;;;;;;;;;4997742;28;20087;-63
2024/01/21 11:18:51;;;;;;;16.30;8.98;;;;;;;;;;5015769;28;20065;-63
2024/01/21 11:21:20;;;;;;;19.17;10.38;;;;;;;;;;4997832;28;20062;-63
2024/01/21 11:23:57;;;;;;;17.17;10.77;;;;;;;;;;5015379;28;20034;-63
2024/01/21 11:26:23;;;;;;;16.65;9.77;;;;;;;;;;5015358;28;20033;-63
2024/01/21 11:28:49;;;;;;;17.60;10.70;;;;;;;;;;5015040;28;20389;-63
2024/01/21 11:31:21;;;;;;;17.33;10.45;;;;;;;;;;5015017;28;20017;-63
2024/01/21 11:34:06;;;;;;;19.85;10.45;;;;;;;;;;5015212;28;20044;-63
2024/01/21 11:36:37;;;;;;;22.48;11.52;;;;;;;;;;5015075;28;20025;-63
2024/01/21 11:39:05;;;;;;;17.33;11.70;;;;;;;;;;4997322;28;20033;-63
2024/01/21 11:41:37;;;;;;;18.10;11.02;;;;;;;;;;5015353;28;20024;-63
2024/01/21 11:44:12;;;;;;;15.23;9.48;;;;;;;;;;5030553;28;20030;-64
2024/01/21 11:46:40;;;;;;;15.43;9.25;;;;;;;;;;4997501;28;20033;-64
2024/01/21 11:49:05;;;;;;;19.77;11.40;;;;;;;;;;5015001;28;20030;-64
2024/01/21 11:51:31;;;;;;;16.65;9.77;;;;;;;;;;5014914;28;20034;-64
2024/01/21 11:53:56;;;;;;;15.88;9.15;;;;;;;;;;4997040;28;20030;-64
2024/01/21 11:56:22;;;;;;;19.80;10.75;;;;;;;;;;5015160;28;20476;-63
2024/01/21 11:58:47;;;;;;;22.67;11.82;;;;;;;;;;5014844;28;20033;-63
2024/01/21 12:01:13;;;;;;;24.13;13.70;;;;;;;;;;5015068;28;20030;-63
2024/01/21 12:03:38;;;;;;;24.40;13.13;;;;;;;;;;4996748;28;20485;-64
2024/01/21 12:06:03;;;;;;;18.95;11.35;;;;;;;;;;5014452;28;20046;-64
2024/01/21 12:08:29;;;;;;;16.80;10.18;;;;;;;;;;4996700;28;20481;-64
2024/01/21 12:10:55;;;;;;;17.55;10.73;;;;;;;;;;5014018;28;20470;-64
2024/01/21 12:13:20;;;;;;;18.25;11.73;;;;;;;;;;5015138;28;20036;-63
2024/01/21 12:15:52;;;;;;;20.75;12.07;;;;;;;;;;5029416;28;20030;-63
2024/01/21 12:18:17;;;;;;;18.98;11.00;;;;;;;;;;5014185;28;20029;-63
2024/01/21 12:20:43;;;;;;;15.32;9.40;;;;;;;;;;5014546;28;20360;-64
2024/01/21 12:23:20;;;;;;;17.45;11.73;;;;;;;;;;5014150;28;20432;-64
2024/01/21 12:25:46;;;;;;;17.13;11.15;;;;;;;;;;4996449;28;20101;-63
2024/01/21 12:28:11;;;;;;;16.35;10.40;;;;;;;;;;5014657;28;20026;-63
2024/01/21 12:30:37;;;;;;;17.23;9.85;;;;;;;;;;5014022;28;20030;-63
2024/01/21 12:33:02;;;;;;;23.00;12.02;;;;;;;;;;4996833;28;20527;-64
2024/01/21 12:35:27;;;;;;;20.88;12.75;;;;;;;;;;5014285;28;20032;-64
2024/01/21 12:37:53;;;;;;;26.95;12.85;;;;;;;;;;5013994;28;20532;-64
2024/01/21 12:40:19;;;;;;;21.13;11.70;;;;;;;;;;5014221;28;20030;-64
2024/01/21 12:42:44;;;;;;;17.40;10.77;;;;;;;;;;5014469;28;20463;-64
2024/01/21 12:45:10;;;;;;;30.30;15.23;;;;;;;;;;5013776;28;20109;-64
2024/01/21 12:47:35;;;;;;;21.90;12.18;;;;;;;;;;5013905;28;20088;-64
2024/01/21 12:50:01;;;;;;;23.08;11.98;;;;;;;;;;5014094;28;20104;-64
2024/01/21 12:52:26;;;;;;;19.70;11.35;;;;;;;;;;5013805;28;20474;-64
2024/01/21 12:54:51;;;;;;;18.58;10.32;;;;;;;;;;5013809;28;20033;-64
2024/01/21 12:57:17;;;;;;;18.25;10.32;;;;;;;;;;5013756;28;20056;-64
2024/01/21 12:59:42;;;;;;;20.20;11.48;;;;;;;;;;5013768;28;20025;-64
2024/01/21 13:02:07;;;;;;;19.63;10.48;;;;;;;;;;5013985;28;20034;-64
2024/01/21 13:04:33;;;;;;;30.58;15.18;;;;;;;;;;5013903;28;20026;-64
2024/01/21 13:06:58;;;;;;;26.75;13.48;;;;;;;;;;5014235;28;20022;-64
2024/01/21 13:09:24;;;;;;;20.65;11.05;;;;;;;;;;5013513;28;20512;-64
2024/01/21 13:11:49;;;;;;;26.00;13.90;;;;;;;;;;5013884;28;20433;-64
2024/01/21 13:14:15;;;;;;;18.55;9.88;;;;;;;;;;5013626;28;20442;-64
2024/01/21 13:16:40;;;;;;;13.25;8.25;;;;;;;;;;4996062;28;20057;-64
2024/01/21 13:19:05;;;;;;;14.95;8.20;;;;;;;;;;5013844;28;20520;-64
2024/01/21 13:21:31;;;;;;;14.07;8.70;;;;;;;;;;5013533;28;20437;-64
2024/01/21 13:23:56;;;;;;;17.42;8.50;;;;;;;;;;4998885;28;20132;-64
2024/01/21 13:26:22;;;;;;;15.55;8.60;;;;;;;;;;5017358;28;20062;-65
2024/01/21 13:31:41;;;;;;;13.20;7.55;;;;;;;;;;4980018;28;20045;-65
2024/01/21 13:34:06;;;;;;;13.90;7.57;;;;;;;;;;5017803;28;20420;-64
2024/01/21 13:36:32;;;;;;;11.90;7.82;;;;;;;;;;5017181;28;20053;-64
2024/01/21 13:38:57;;;;;;;12.02;7.68;;;;;;;;;;5017122;28;20022;-64
2024/01/21 13:41:23;;;;;;;13.77;8.18;;;;;;;;;;4999511;28;20018;-64
2024/01/21 13:43:48;;;;;;;16.25;8.65;;;;;;;;;;5017241;28;20026;-64
2024/01/21 13:46:15;;;;;;;19.90;10.85;;;;;;;;;;5016408;28;20030;-64
2024/01/21 13:48:41;;;;;;;22.80;13.40;;;;;;;;;;5015614;28;20041;-64
2024/01/21 13:51:09;;;;;;;18.77;10.13;;;;;;;;;;5017174;28;20519;-64
2024/01/21 13:53:35;;;;;;;17.35;9.23;;;;;;;;;;4999664;28;20041;-64
2024/01/21 13:56:00;;;;;;;22.85;11.23;;;;;;;;;;4999604;28;20030;-64
2024/01/21 13:58:26;;;;;;;24.00;11.52;;;;;;;;;;5017045;28;20033;-64
2024/01/21 14:00:51;;;;;;;25.40;12.73;;;;;;;;;;5016420;28;20108;-64
2024/01/21 14:03:17;;;;;;;32.88;15.45;;;;;;;;;;5014737;28;20469;-64
2024/01/21 14:05:42;;;;;;;37.90;17.92;;;;;;;;;;4997270;28;20358;-64
2024/01/21 14:08:08;;;;;;;39.00;17.58;;;;;;;;;;5014597;28;20088;-64
2024/01/21 14:10:34;;;;;;;28.55;14.02;;;;;;;;;;5015670;28;20033;-64
2024/01/21 14:13:00;;;;;;;25.02;13.43;;;;;;;;;;5016782;28;20040;-64
2024/01/21 14:15:25;;;;;;;29.58;13.77;;;;;;;;;;5016743;28;20097;-64
2024/01/21 14:17:50;;;;;;;27.38;14.57;;;;;;;;;;4982601;28;20037;-64
2024/01/21 14:20:17;;;;;;;30.35;15.80;;;;;;;;;;5016936;28;20041;-63
2024/01/21 14:22:43;;;;;;;27.92;15.18;;;;;;;;;;5016297;28;20058;-63
2024/01/21 14:25:18;;;;;;;32.35;17.40;;;;;;;;;;4998982;28;20488;-63
2024/01/21 14:27:44;;;;;;;38.13;18.65;;;;;;;;;;5016257;28;20057;-63
2024/01/21 14:30:14;;;;;;;33.50;16.13;;;;;;;;;;5014998;28;20022;-64
2024/01/21 14:32:40;;;;;;;29.98;15.00;;;;;;;;;;5015925;28;20469;-64
2024/01/21 14:35:05;;;;;;;35.65;17.02;;;;;;;;;;5015159;28;20117;-64
2024/01/21 14:37:31;;;;;;;35.55;17.52;;;;;;;;;;5015618;28;20389;-64
2024/01/21 14:39:56;;;;;;;39.08;18.13;;;;;;;;;;5015491;28;20049;-64
2024/01/21 14:42:21;;;;;;;46.85;22.17;;;;;;;;;;5015616;28;20030;-64
2024/01/21 14:44:47;;;;;;;47.08;21.65;;;;;;;;;;5015198;28;20068;-64
2024/01/21 14:47:12;;;;;;;37.42;17.45;;;;;;;;;;4998138;28;20030;-64
2024/01/21 14:49:37;;;;;;;29.27;15.90;;;;;;;;;;5015029;28;20010;-64
2024/01/21 14:52:03;;;;;;;34.08;18.05;;;;;;;;;;5015514;28;20382;-64
2024/01/21 14:54:29;;;;;;;53.15;25.50;;;;;;;;;;5015116;28;20048;-64
2024/01/21 14:56:54;;;;;;;90.47;41.83;;;;;;;;;;5015314;28;20010;-63
2024/01/21 14:59:20;;;;;;;88.25;46.13;;;;;;;;;;5015171;28;20385;-63
2024/01/21 15:01:45;;;;;;;81.30;43.25;;;;;;;;;;5014869;28;20037;-64
2024/01/21 15:04:11;;;;;;;62.20;34.53;;;;;;;;;;5014975;28;20450;-64
2024/01/21 15:06:36;;;;;;;77.68;41.17;;;;;;;;;;5015125;28;20432;-63
2024/01/21 15:09:02;;;;;;;81.47;42.95;;;;;;;;;;5014830;28;20050;-64